createdAt,value
2019-05-05T00:00:36.580Z,0.6531
2019-05-05T00:01:38.694Z,0.7201
2019-05-05T00:02:39.577Z,0.7201
2019-05-05T00:03:41.463Z,0.8709
2019-05-05T00:04:45.325Z,0.4857
2019-05-05T00:05:47.417Z,0.9713
2019-05-05T00:06:49.521Z,0.5359
2019-05-05T00:07:51.446Z,0.2847
2019-05-05T00:08:54.699Z,0.6029
2019-05-05T00:09:56.785Z,1.1723
2019-05-05T00:10:58.665Z,0.9881
2019-05-05T00:12:00.714Z,1.1891
2019-05-05T00:13:04.531Z,1.0216
2019-05-05T00:14:06.597Z,0.9211
2019-05-05T00:15:08.488Z,1.1388
2019-05-05T00:16:10.282Z,1.2225
2019-05-05T00:17:12.098Z,0.9546
2019-05-05T00:18:14.815Z,1.2058
2019-05-05T00:19:29.499Z,0.6866
2019-05-05T00:20:24.966Z,0.1172
2019-05-05T00:21:26.837Z,0.1340
2019-05-05T00:22:28.856Z,0.8541
2019-05-05T00:23:30.086Z,0.4522
2019-05-05T00:24:31.280Z,0.0000
2019-05-05T00:25:34.315Z,0.1842
2019-05-05T00:26:36.234Z,0.0335
2019-05-05T00:27:38.459Z,0.0000
2019-05-05T00:28:40.365Z,0.0335
2019-05-05T00:29:42.240Z,0.0000
2019-05-05T00:30:44.837Z,0.1675
2019-05-05T00:31:46.567Z,0.0167
2019-05-05T00:32:48.796Z,0.0000
2019-05-05T00:33:49.987Z,0.0670
2019-05-05T00:34:51.794Z,0.6866
2019-05-05T00:35:54.478Z,0.7704
2019-05-05T00:36:55.478Z,1.0216
2019-05-05T00:37:57.693Z,0.7704
2019-05-05T00:38:59.637Z,0.8206
2019-05-05T00:40:01.486Z,1.1053
2019-05-05T00:41:05.324Z,1.0551
2019-05-05T00:42:06.673Z,0.1507
2019-05-05T00:43:08.841Z,0.6196
2019-05-05T00:44:09.664Z,1.0216
2019-05-05T00:45:11.530Z,0.6029
2019-05-05T00:46:15.991Z,0.4187
2019-05-05T00:47:18.332Z,0.1675
2019-05-05T00:48:20.747Z,0.3349
2019-05-05T00:49:24.934Z,0.3852
2019-05-05T00:50:26.253Z,0.1172
2019-05-05T00:51:28.098Z,0.0000
2019-05-05T00:52:29.446Z,0.0335
2019-05-05T00:53:31.691Z,0.0000
2019-05-05T00:54:34.708Z,0.0167
2019-05-05T00:55:36.690Z,0.1507
2019-05-05T00:56:38.530Z,0.3182
2019-05-05T00:57:40.577Z,0.0167
2019-05-05T00:58:44.638Z,0.1005
2019-05-05T00:59:45.620Z,0.0502
2019-05-05T01:00:47.544Z,0.0000
2019-05-05T01:01:49.442Z,0.0000
2019-05-05T01:02:50.292Z,0.0000
2019-05-05T01:03:51.483Z,0.0000
2019-05-05T01:04:54.979Z,0.0000
2019-05-05T01:05:57.196Z,0.0167
2019-05-05T01:06:59.162Z,0.0000
2019-05-05T01:08:01.185Z,0.0000
2019-05-05T01:09:04.199Z,0.0000
2019-05-05T01:10:06.146Z,0.0000
2019-05-05T01:11:08.023Z,0.0000
2019-05-05T01:12:09.924Z,0.0000
2019-05-05T01:13:11.760Z,0.0000
2019-05-05T01:14:14.483Z,0.0000
2019-05-05T01:15:16.036Z,0.0000
2019-05-05T01:16:18.039Z,0.0000
2019-05-05T01:17:20.095Z,0.0167
2019-05-05T01:18:22.079Z,0.0000
2019-05-05T01:19:24.391Z,0.0000
2019-05-05T01:20:26.318Z,0.0000
2019-05-05T01:21:28.153Z,0.0335
2019-05-05T01:22:29.979Z,0.0000
2019-05-05T01:23:31.876Z,0.0000
2019-05-05T01:24:34.277Z,0.0000
2019-05-05T01:25:36.109Z,0.0000
2019-05-05T01:26:38.252Z,0.0000
2019-05-05T01:27:39.613Z,0.0167
2019-05-05T01:28:41.499Z,0.0000
2019-05-05T01:29:45.192Z,0.0000
2019-05-05T01:30:47.116Z,0.0000
2019-05-05T01:31:48.986Z,0.0000
2019-05-05T01:32:50.910Z,0.0000
2019-05-05T01:33:54.184Z,0.0000
2019-05-05T01:34:56.277Z,0.0000
2019-05-05T01:35:58.074Z,0.0000
2019-05-05T01:36:59.944Z,0.0000
2019-05-05T01:38:01.858Z,0.0000
2019-05-05T01:39:04.239Z,0.0000
2019-05-05T01:40:05.561Z,0.0000
2019-05-05T01:41:07.384Z,0.0000
2019-05-05T01:42:09.217Z,0.0000
2019-05-05T01:43:11.049Z,0.0000
2019-05-05T01:44:12.854Z,0.0000
2019-05-05T01:45:15.007Z,0.0000
2019-05-05T01:46:16.813Z,0.0000
2019-05-05T01:47:18.562Z,0.0000
2019-05-05T01:48:20.451Z,0.0000
2019-05-05T01:49:21.660Z,0.0000
2019-05-05T01:50:24.672Z,0.0000
2019-05-05T01:51:27.011Z,0.0000
2019-05-05T01:52:28.850Z,0.0000
2019-05-05T01:53:30.810Z,0.0000
2019-05-05T01:54:32.644Z,0.0000
2019-05-05T01:55:34.826Z,0.0000
2019-05-05T01:56:36.919Z,0.0000
2019-05-05T01:57:38.901Z,0.0000
2019-05-05T01:58:40.742Z,0.0000
2019-05-05T01:59:44.680Z,0.0000
2019-05-05T02:00:46.097Z,0.0000
2019-05-05T02:01:48.337Z,0.0000
2019-05-05T02:02:49.543Z,0.0000
2019-05-05T02:03:51.376Z,0.0000
2019-05-05T02:04:55.136Z,0.0000
2019-05-05T02:05:57.267Z,0.0000
2019-05-05T02:06:59.285Z,0.0000
2019-05-05T02:08:01.158Z,0.0000
2019-05-05T02:09:05.167Z,0.0000
2019-05-05T02:10:07.186Z,0.0000
2019-05-05T02:11:08.415Z,0.0000
2019-05-05T02:12:10.494Z,0.0000
2019-05-05T02:13:12.293Z,0.0000
2019-05-05T02:14:15.613Z,0.0000
2019-05-05T02:15:16.896Z,0.0000
2019-05-05T02:16:18.757Z,0.0000
2019-05-05T02:17:20.834Z,0.0000
2019-05-05T02:18:22.681Z,0.0000
2019-05-05T02:19:25.201Z,0.0000
2019-05-05T02:20:30.831Z,0.0167
2019-05-05T02:21:32.646Z,0.0000
2019-05-05T02:22:35.618Z,0.0000
2019-05-05T02:23:37.000Z,0.1340
2019-05-05T02:24:38.793Z,0.2010
2019-05-05T02:25:39.982Z,0.0000
2019-05-05T02:26:41.847Z,0.0167
2019-05-05T02:27:44.683Z,0.0167
2019-05-05T02:28:46.774Z,0.0670
2019-05-05T02:29:48.644Z,0.5359
2019-05-05T02:30:50.520Z,0.0167
2019-05-05T02:31:52.303Z,0.0502
2019-05-05T02:32:55.453Z,0.1842
2019-05-05T02:33:57.370Z,0.3182
2019-05-05T02:34:59.102Z,0.3182
2019-05-05T02:36:00.310Z,0.1842
2019-05-05T02:37:05.249Z,0.1340
2019-05-05T02:38:07.348Z,0.1842
2019-05-05T02:39:09.601Z,0.1172
2019-05-05T02:40:11.743Z,0.1507
2019-05-05T02:41:15.460Z,0.0167
2019-05-05T02:42:17.488Z,0.0000
2019-05-05T02:43:19.350Z,0.0000
2019-05-05T02:44:21.416Z,0.1675
2019-05-05T02:45:24.850Z,0.1005
2019-05-05T02:46:26.005Z,0.0000
2019-05-05T02:47:27.911Z,0.0000
2019-05-05T02:48:29.843Z,0.0000
2019-05-05T02:49:34.954Z,0.0000
2019-05-05T02:50:51.119Z,0.0000
2019-05-05T02:51:44.676Z,0.1005
2019-05-05T02:52:46.704Z,0.0000
2019-05-05T02:53:48.541Z,0.1340
2019-05-05T02:54:50.624Z,0.0502
2019-05-05T02:55:53.323Z,0.4522
2019-05-05T02:56:55.253Z,0.0837
2019-05-05T02:57:57.125Z,0.0335
2019-05-05T02:58:58.964Z,0.0837
2019-05-05T03:00:00.265Z,0.0167
2019-05-05T03:01:02.379Z,0.1340
2019-05-05T03:02:04.444Z,0.2847
2019-05-05T03:03:06.338Z,0.0167
2019-05-05T03:04:08.168Z,0.0000
2019-05-05T03:05:10.074Z,0.0000
2019-05-05T03:06:14.360Z,0.0335
2019-05-05T03:07:16.363Z,0.0335
2019-05-05T03:08:18.302Z,0.0000
2019-05-05T03:09:20.114Z,0.0167
2019-05-05T03:10:21.894Z,0.0000
2019-05-05T03:11:23.965Z,0.3015
2019-05-05T03:12:25.828Z,0.0167
2019-05-05T03:13:27.642Z,0.0000
2019-05-05T03:14:28.848Z,0.0837
2019-05-05T03:15:30.033Z,0.0000
2019-05-05T03:16:31.231Z,0.0000
2019-05-05T03:17:34.092Z,0.0000
2019-05-05T03:18:36.233Z,0.0000
2019-05-05T03:19:38.122Z,0.0000
2019-05-05T03:20:40.014Z,0.0167
2019-05-05T03:21:44.179Z,0.0167
2019-05-05T03:22:46.179Z,0.0000
2019-05-05T03:23:47.364Z,0.0000
2019-05-05T03:24:49.240Z,0.0000
2019-05-05T03:25:51.034Z,0.0000
2019-05-05T03:26:53.710Z,0.0000
2019-05-05T03:27:55.182Z,0.0000
2019-05-05T03:28:57.035Z,0.0000
2019-05-05T03:29:58.937Z,0.0502
2019-05-05T03:31:00.772Z,0.0000
2019-05-05T03:32:05.496Z,0.0167
2019-05-05T03:33:08.300Z,0.0000
2019-05-05T03:34:10.125Z,0.0167
2019-05-05T03:35:13.532Z,0.0000
2019-05-05T03:36:14.959Z,0.2010
2019-05-05T03:37:17.206Z,0.2512
2019-05-05T03:38:18.400Z,0.0167
2019-05-05T03:39:20.265Z,0.4857
2019-05-05T03:40:23.854Z,0.2177
2019-05-05T03:41:25.782Z,0.0000
2019-05-05T03:42:27.937Z,0.1005
2019-05-05T03:43:29.993Z,0.1675
2019-05-05T03:44:33.527Z,0.0167
2019-05-05T03:45:35.465Z,0.0837
2019-05-05T03:46:37.265Z,0.2177
2019-05-05T03:47:39.128Z,0.0000
2019-05-05T03:48:41.241Z,0.0000
2019-05-05T03:49:44.180Z,0.0000
2019-05-05T03:50:45.481Z,0.0000
2019-05-05T03:51:47.282Z,0.0000
2019-05-05T03:52:49.103Z,0.1340
2019-05-05T03:53:51.110Z,0.3182
2019-05-05T03:54:54.167Z,0.0000
2019-05-05T03:55:56.098Z,0.0000
2019-05-05T03:56:57.873Z,0.0000
2019-05-05T03:57:59.740Z,0.0000
2019-05-05T03:59:01.938Z,0.0000
2019-05-05T04:00:04.431Z,0.0167
2019-05-05T04:01:06.130Z,0.0000
2019-05-05T04:02:07.984Z,0.0000
2019-05-05T04:03:09.747Z,0.0000
2019-05-05T04:04:11.552Z,0.0000
2019-05-05T04:05:14.545Z,0.0000
2019-05-05T04:06:15.857Z,0.0000
2019-05-05T04:07:17.055Z,0.0167
2019-05-05T04:08:18.247Z,0.0000
2019-05-05T04:09:19.890Z,0.0000
2019-05-05T04:10:21.675Z,0.0000
2019-05-05T04:11:23.678Z,0.0000
2019-05-05T04:12:25.505Z,0.0000
2019-05-05T04:13:27.264Z,0.0000
2019-05-05T04:14:29.254Z,0.0335
2019-05-05T04:15:31.047Z,0.0167
2019-05-05T04:16:34.240Z,0.0000
2019-05-05T04:17:36.084Z,0.0000
2019-05-05T04:18:37.988Z,0.0000
2019-05-05T04:19:40.066Z,0.0000
2019-05-05T04:20:44.035Z,0.0167
2019-05-05T04:21:45.433Z,0.0000
2019-05-05T04:22:47.388Z,0.1340
2019-05-05T04:23:49.076Z,0.0000
2019-05-05T04:24:51.168Z,0.0000
2019-05-05T04:25:54.436Z,0.0000
2019-05-05T04:26:56.430Z,0.0000
2019-05-05T04:27:58.240Z,0.0000
2019-05-05T04:29:02.437Z,0.1172
2019-05-05T04:30:05.754Z,0.0000
2019-05-05T04:31:07.582Z,0.0502
2019-05-05T04:32:08.768Z,0.0000
2019-05-05T04:33:10.657Z,0.0000
2019-05-05T04:34:13.482Z,0.2680
2019-05-05T04:35:15.813Z,0.3517
2019-05-05T04:36:17.047Z,0.0167
2019-05-05T04:37:18.871Z,0.3350
2019-05-05T04:38:20.779Z,0.7536
2019-05-05T04:39:23.690Z,0.2177
2019-05-05T04:40:24.974Z,0.0000
2019-05-05T04:41:26.910Z,0.0000
2019-05-05T04:42:28.732Z,0.0000
2019-05-05T04:43:30.660Z,0.0502
2019-05-05T04:44:34.616Z,0.0335
2019-05-05T04:45:36.717Z,0.4019
2019-05-05T04:46:37.918Z,0.3517
2019-05-05T04:47:39.760Z,0.4354
2019-05-05T04:48:40.961Z,0.0000
2019-05-05T04:49:42.159Z,0.1005
2019-05-05T04:50:44.233Z,0.4354
2019-05-05T04:51:49.968Z,0.9881
2019-05-05T04:52:53.939Z,0.0167
2019-05-05T04:53:54.919Z,0.0000
2019-05-05T04:54:56.148Z,0.1005
2019-05-05T04:55:58.023Z,0.5527
2019-05-05T04:57:00.036Z,0.0000
2019-05-05T04:58:01.929Z,0.0000
2019-05-05T04:59:04.173Z,0.0000
2019-05-05T05:00:06.116Z,0.0000
2019-05-05T05:01:07.953Z,0.0000
2019-05-05T05:02:10.097Z,0.0000
2019-05-05T05:03:13.347Z,0.2512
2019-05-05T05:04:15.345Z,0.4019
2019-05-05T05:05:17.249Z,0.4019
2019-05-05T05:06:19.096Z,0.1172
2019-05-05T05:07:21.211Z,0.0000
2019-05-05T05:08:24.771Z,0.0000
2019-05-05T05:09:26.054Z,0.0000
2019-05-05T05:10:27.982Z,0.0502
2019-05-05T05:11:29.682Z,0.0000
2019-05-05T05:12:33.973Z,0.9713
2019-05-05T05:13:35.405Z,0.2512
2019-05-05T05:14:37.329Z,0.0000
2019-05-05T05:15:39.003Z,0.0167
2019-05-05T05:16:40.872Z,0.0837
2019-05-05T05:17:44.289Z,0.0000
2019-05-05T05:18:45.345Z,0.0000
2019-05-05T05:19:47.256Z,0.0167
2019-05-05T05:20:49.091Z,0.0000
2019-05-05T05:22:00.831Z,0.0000
2019-05-05T05:22:57.286Z,0.0167
2019-05-05T05:23:59.177Z,1.1396
2019-05-05T05:25:01.012Z,0.3686
2019-05-05T05:26:02.225Z,0.1340
2019-05-05T05:27:05.035Z,0.1340
2019-05-05T05:28:06.382Z,0.4019
2019-05-05T05:29:08.303Z,0.1842
2019-05-05T05:30:10.160Z,0.7034
2019-05-05T05:31:14.042Z,0.8377
2019-05-05T05:32:15.634Z,0.2177
2019-05-05T05:33:17.577Z,0.0335
2019-05-05T05:34:19.723Z,0.1005
2019-05-05T05:35:21.594Z,0.0167
2019-05-05T05:36:24.758Z,0.0837
2019-05-05T05:37:26.802Z,0.4354
2019-05-05T05:38:28.750Z,0.0000
2019-05-05T05:39:31.012Z,0.0000
2019-05-05T05:40:34.202Z,0.2345
2019-05-05T05:41:36.336Z,0.5359
2019-05-05T05:42:38.014Z,0.0837
2019-05-05T05:43:39.928Z,0.4689
2019-05-05T05:44:41.075Z,0.1507
2019-05-05T05:45:43.644Z,0.2010
2019-05-05T05:46:44.827Z,0.2010
2019-05-05T05:47:46.798Z,0.3015
2019-05-05T05:48:48.712Z,0.7704
2019-05-05T05:49:50.905Z,0.0000
2019-05-05T05:50:53.702Z,0.1172
2019-05-05T05:51:55.682Z,0.1675
2019-05-05T05:52:57.557Z,0.1842
2019-05-05T05:53:59.432Z,0.6531
2019-05-05T05:55:01.295Z,0.9211
2019-05-05T05:56:04.223Z,0.1005
2019-05-05T05:57:05.589Z,0.2847
2019-05-05T05:58:07.617Z,0.7536
2019-05-05T05:59:09.439Z,0.0000
2019-05-05T06:00:11.415Z,0.0000
2019-05-05T06:01:14.691Z,0.0000
2019-05-05T06:02:15.848Z,0.6866
2019-05-05T06:03:17.740Z,0.2345
2019-05-05T06:04:19.579Z,0.4522
2019-05-05T06:05:20.771Z,0.3349
2019-05-05T06:06:23.993Z,0.1005
2019-05-05T06:07:25.348Z,0.3015
2019-05-05T06:08:29.934Z,0.6029
2019-05-05T06:09:31.780Z,0.5024
2019-05-05T06:10:34.005Z,0.0335
2019-05-05T06:11:35.813Z,0.0670
2019-05-05T06:12:37.735Z,0.3852
2019-05-05T06:13:39.802Z,0.2680
2019-05-05T06:14:40.794Z,0.8876
2019-05-05T06:15:44.416Z,0.6699
2019-05-05T06:16:46.925Z,0.0837
2019-05-05T06:17:48.117Z,0.0167
2019-05-05T06:18:50.097Z,0.0000
2019-05-05T06:19:53.471Z,0.6029
2019-05-05T06:20:55.479Z,0.1675
2019-05-05T06:21:57.426Z,0.1507
2019-05-05T06:22:59.314Z,0.5694
2019-05-05T06:24:01.252Z,0.7871
2019-05-05T06:25:06.660Z,0.3182
2019-05-05T06:26:08.279Z,1.0551
2019-05-05T06:27:10.480Z,0.8206
2019-05-05T06:28:11.672Z,0.3517
2019-05-05T06:29:14.546Z,0.6531
2019-05-05T06:30:15.920Z,0.0167
2019-05-05T06:31:17.897Z,0.1172
2019-05-05T06:32:19.170Z,0.7871
2019-05-05T06:33:21.128Z,0.8541
2019-05-05T06:34:24.443Z,0.4354
2019-05-05T06:35:26.506Z,0.0167
2019-05-05T06:36:28.429Z,0.3684
2019-05-05T06:37:30.878Z,0.4187
2019-05-05T06:38:34.570Z,0.2847
2019-05-05T06:39:36.722Z,0.5024
2019-05-05T06:40:38.137Z,0.3015
2019-05-05T06:41:40.092Z,1.1556
2019-05-05T06:42:43.415Z,1.2225
2019-05-05T06:43:45.385Z,0.6866
2019-05-05T06:44:47.304Z,0.2512
2019-05-05T06:45:49.632Z,0.0335
2019-05-05T06:46:51.451Z,1.1388
2019-05-05T06:47:53.864Z,0.1005
2019-05-05T06:48:55.795Z,0.4689
2019-05-05T06:49:57.699Z,1.0556
2019-05-05T06:50:59.603Z,0.4187
2019-05-05T06:52:03.862Z,0.1172
2019-05-05T06:53:05.523Z,0.1172
2019-05-05T06:54:07.427Z,0.0335
2019-05-05T06:55:09.373Z,0.7704
2019-05-05T06:56:11.268Z,0.7036
2019-05-05T06:57:13.846Z,0.2009
2019-05-05T06:58:15.186Z,0.2513
2019-05-05T06:59:16.902Z,1.0383
2019-05-05T07:00:18.847Z,0.2512
2019-05-05T07:01:20.804Z,0.2345
2019-05-05T07:02:23.789Z,0.6535
2019-05-05T07:03:25.498Z,0.2847
2019-05-05T07:04:27.435Z,0.0167
2019-05-05T07:05:29.303Z,0.0335
2019-05-05T07:06:31.184Z,0.0000
2019-05-05T07:07:34.286Z,0.0167
2019-05-05T07:08:36.614Z,0.0000
2019-05-05T07:09:38.433Z,0.0167
2019-05-05T07:10:40.267Z,0.0167
2019-05-05T07:11:43.677Z,0.0167
2019-05-05T07:12:45.922Z,0.2512
2019-05-05T07:13:48.258Z,1.1723
2019-05-05T07:14:49.281Z,1.0216
2019-05-05T07:15:51.126Z,0.4690
2019-05-05T07:16:54.466Z,0.3182
2019-05-05T07:17:56.529Z,0.2847
2019-05-05T07:18:58.780Z,0.0502
2019-05-05T07:20:00.708Z,0.0837
2019-05-05T07:21:03.640Z,0.1507
2019-05-05T07:22:05.332Z,0.6531
2019-05-05T07:23:07.138Z,0.1842
2019-05-05T07:24:08.349Z,1.1221
2019-05-05T07:25:10.236Z,0.7871
2019-05-05T07:26:14.333Z,0.4689
2019-05-05T07:27:16.475Z,0.4522
2019-05-05T07:28:18.370Z,0.7704
2019-05-05T07:29:20.287Z,0.0335
2019-05-05T07:30:24.299Z,0.1675
2019-05-05T07:31:25.267Z,1.1388
2019-05-05T07:32:27.190Z,1.0216
2019-05-05T07:33:29.105Z,0.2177
2019-05-05T07:34:30.980Z,0.0167
2019-05-05T07:35:34.339Z,0.5192
2019-05-05T07:36:36.548Z,0.1005
2019-05-05T07:37:38.428Z,0.0167
2019-05-05T07:38:40.299Z,0.2680
2019-05-05T07:39:44.558Z,0.0167
2019-05-05T07:40:45.861Z,0.5192
2019-05-05T07:41:47.728Z,0.5694
2019-05-05T07:42:49.226Z,1.0048
2019-05-05T07:43:51.028Z,0.0167
2019-05-05T07:44:54.655Z,0.0167
2019-05-05T07:45:56.981Z,0.0670
2019-05-05T07:46:58.863Z,0.3182
2019-05-05T07:48:00.748Z,0.1172
2019-05-05T07:49:03.913Z,0.3517
2019-05-05T07:50:04.884Z,0.6196
2019-05-05T07:51:06.747Z,1.2895
2019-05-05T07:52:08.014Z,0.6196
2019-05-05T07:53:14.667Z,0.7536
2019-05-05T07:54:16.465Z,0.5192
2019-05-05T07:55:18.418Z,0.7704
2019-05-05T07:56:20.772Z,0.5023
2019-05-05T07:57:23.817Z,0.8541
2019-05-05T07:58:24.730Z,1.9930
2019-05-05T07:59:26.703Z,1.8757
2019-05-05T08:00:28.560Z,0.7369
2019-05-05T08:01:30.700Z,0.6029
2019-05-05T08:02:33.866Z,0.5192
2019-05-05T08:03:35.952Z,0.5024
2019-05-05T08:04:37.985Z,0.0837
2019-05-05T08:05:39.824Z,0.1172
2019-05-05T08:06:41.870Z,0.1172
2019-05-05T08:07:44.691Z,0.8879
2019-05-05T08:08:46.709Z,1.9259
2019-05-05T08:09:48.641Z,1.3900
2019-05-05T08:10:50.460Z,1.9614
2019-05-05T08:11:54.216Z,2.3279
2019-05-05T08:12:56.688Z,1.9092
2019-05-05T08:13:58.355Z,1.1053
2019-05-05T08:15:00.475Z,1.7585
2019-05-05T08:16:03.853Z,2.0767
2019-05-05T08:17:05.130Z,1.2729
2019-05-05T08:18:06.885Z,1.2058
2019-05-05T08:19:08.735Z,1.5575
2019-05-05T08:20:10.671Z,1.2394
2019-05-05T08:21:13.633Z,1.5073
2019-05-05T08:22:14.918Z,2.0767
2019-05-05T08:23:28.991Z,1.5407
2019-05-05T08:24:24.408Z,0.9378
2019-05-05T08:25:36.178Z,1.7082
2019-05-05T08:26:33.692Z,1.6077
2019-05-05T08:27:34.662Z,1.1556
2019-05-05T08:28:36.529Z,1.8087
2019-05-05T08:29:37.353Z,1.4907
2019-05-05T08:30:39.164Z,1.0216
2019-05-05T08:31:41.060Z,0.5694
2019-05-05T08:32:43.637Z,1.4909
2019-05-05T08:33:45.744Z,1.6078
2019-05-05T08:34:56.866Z,0.4689
2019-05-05T08:35:54.236Z,1.5575
2019-05-05T08:36:55.481Z,2.0767
2019-05-05T08:37:57.345Z,1.5073
2019-05-05T08:38:58.634Z,1.0551
2019-05-05T08:40:00.459Z,0.8541
2019-05-05T08:41:04.424Z,0.4522
2019-05-05T08:42:06.453Z,2.5623
2019-05-05T08:43:08.344Z,1.4570
2019-05-05T08:44:10.681Z,0.9378
2019-05-05T08:45:13.833Z,1.1556
2019-05-05T08:46:15.158Z,0.2010
2019-05-05T08:47:17.110Z,0.9044
2019-05-05T08:48:18.983Z,0.9044
2019-05-05T08:49:21.114Z,0.6534
2019-05-05T08:50:26.293Z,1.4076
2019-05-05T08:51:27.625Z,2.6796
2019-05-05T08:52:29.463Z,1.2393
2019-05-05T08:53:41.529Z,0.4187
2019-05-05T08:54:37.830Z,0.8039
2019-05-05T08:55:39.260Z,2.0097
2019-05-05T08:56:41.370Z,1.5742
2019-05-05T08:57:44.691Z,1.6580
2019-05-05T08:58:49.709Z,0.4187
2019-05-05T08:59:51.658Z,1.8255
2019-05-05T09:00:53.798Z,1.3900
2019-05-05T09:01:54.994Z,0.8374
2019-05-05T09:02:56.847Z,0.2512
2019-05-05T09:03:58.366Z,1.3398
2019-05-05T09:04:59.706Z,0.5862
2019-05-05T09:06:01.584Z,0.3852
2019-05-05T09:07:05.073Z,0.5527
2019-05-05T09:08:06.378Z,0.2177
2019-05-05T09:09:08.173Z,0.4019
2019-05-05T09:10:10.447Z,0.6364
2019-05-05T09:11:14.032Z,1.0551
2019-05-05T09:12:15.369Z,1.2058
2019-05-05T09:13:17.254Z,1.8757
2019-05-05T09:14:19.111Z,1.3565
2019-05-05T09:15:21.248Z,1.5575
2019-05-05T09:16:24.167Z,0.4522
2019-05-05T09:17:28.052Z,0.5028
2019-05-05T09:18:29.337Z,1.4235
2019-05-05T09:19:30.312Z,1.8924
2019-05-05T09:20:34.611Z,0.8709
2019-05-05T09:21:35.734Z,1.0718
2019-05-05T09:22:37.578Z,1.3063
2019-05-05T09:23:39.364Z,1.5073
2019-05-05T09:24:41.451Z,1.4397
2019-05-05T09:25:44.624Z,0.6699
2019-05-05T09:26:45.639Z,0.1842
2019-05-05T09:27:47.608Z,1.2393
2019-05-05T09:28:49.533Z,0.2848
2019-05-05T09:29:50.438Z,0.4187
2019-05-05T09:30:53.663Z,0.5863
2019-05-05T09:31:55.621Z,1.1388
2019-05-05T09:32:57.373Z,0.7536
2019-05-05T09:33:58.574Z,0.2010
2019-05-05T09:34:59.767Z,0.1507
2019-05-05T09:36:00.735Z,0.7369
2019-05-05T09:37:03.640Z,1.1891
2019-05-05T09:38:05.804Z,0.1340
2019-05-05T09:39:07.578Z,0.4522
2019-05-05T09:40:10.022Z,1.0383
2019-05-05T09:41:10.907Z,1.0048
2019-05-05T09:42:14.582Z,1.5742
2019-05-05T09:43:15.959Z,0.2177
2019-05-05T09:44:17.796Z,1.0048
2019-05-05T09:45:19.893Z,0.5694
2019-05-05T09:46:23.450Z,1.3565
2019-05-05T09:47:24.742Z,1.3900
2019-05-05T09:48:26.775Z,1.3398
2019-05-05T09:49:28.588Z,1.2396
2019-05-05T09:50:30.629Z,2.1939
2019-05-05T09:51:31.509Z,1.5240
2019-05-05T09:52:33.837Z,1.3398
2019-05-05T09:53:36.030Z,0.9379
2019-05-05T09:54:37.921Z,1.1054
2019-05-05T09:55:40.042Z,0.9379
2019-05-05T09:56:41.899Z,0.0335
2019-05-05T09:57:43.990Z,0.2680
2019-05-05T09:58:46.171Z,1.1723
2019-05-05T09:59:48.259Z,1.2227
2019-05-05T10:00:50.151Z,1.0216
2019-05-05T10:01:53.768Z,0.7034
2019-05-05T10:02:55.849Z,0.8877
2019-05-05T10:03:57.705Z,1.1556
2019-05-05T10:04:59.687Z,0.8709
2019-05-05T10:06:01.669Z,1.1388
2019-05-05T10:07:04.417Z,0.3852
2019-05-05T10:08:05.860Z,0.4187
2019-05-05T10:09:07.832Z,0.8711
2019-05-05T10:10:09.042Z,1.6412
2019-05-05T10:11:10.232Z,1.0217
2019-05-05T10:12:10.391Z,0.8714
2019-05-05T10:13:14.671Z,0.6196
2019-05-05T10:14:16.545Z,1.4235
2019-05-05T10:15:18.777Z,0.8541
2019-05-05T10:16:20.530Z,1.3733
2019-05-05T10:17:36.278Z,0.5862
2019-05-05T10:18:37.466Z,0.7034
2019-05-05T10:19:39.409Z,1.0886
2019-05-05T10:20:41.536Z,0.1842
2019-05-05T10:21:44.392Z,0.8541
2019-05-05T10:22:46.885Z,1.3230
2019-05-05T10:23:48.712Z,1.3902
2019-05-05T10:24:50.621Z,1.9765
2019-05-05T10:25:53.942Z,1.0894
2019-05-05T10:26:58.457Z,0.8374
2019-05-05T10:28:01.201Z,0.4187
2019-05-05T10:29:04.241Z,0.3015
2019-05-05T10:30:06.165Z,1.1388
2019-05-05T10:31:08.348Z,0.7369
2019-05-05T10:32:10.360Z,0.0502
2019-05-05T10:33:14.106Z,1.2560
2019-05-05T10:34:16.117Z,0.9546
2019-05-05T10:35:17.882Z,1.2560
2019-05-05T10:36:20.043Z,0.6196
2019-05-05T10:37:23.524Z,2.4116
2019-05-05T10:38:25.433Z,1.4407
2019-05-05T10:39:27.333Z,1.6747
2019-05-05T10:40:29.135Z,0.9877
2019-05-05T10:41:31.136Z,0.2847
2019-05-05T10:42:33.639Z,2.0098
2019-05-05T10:43:34.589Z,1.6915
2019-05-05T10:44:36.368Z,1.6755
2019-05-05T10:45:38.236Z,1.0886
2019-05-05T10:46:40.326Z,1.7585
2019-05-05T10:47:44.078Z,2.2944
2019-05-05T10:48:46.033Z,0.7871
2019-05-05T10:49:47.874Z,1.8762
2019-05-05T10:50:49.707Z,1.6413
2019-05-05T10:51:51.806Z,0.0837
2019-05-05T10:52:53.803Z,1.3900
2019-05-05T10:53:55.995Z,1.3230
2019-05-05T10:54:57.828Z,0.9546
2019-05-05T10:55:59.716Z,1.1556
2019-05-05T10:57:03.597Z,1.1559
2019-05-05T10:58:05.286Z,0.8039
2019-05-05T10:59:07.324Z,0.8039
2019-05-05T11:00:12.503Z,0.5694
2019-05-05T11:01:15.858Z,0.7704
2019-05-05T11:02:18.244Z,1.4233
2019-05-05T11:03:20.403Z,1.2058
2019-05-05T11:04:24.374Z,1.1053
2019-05-05T11:05:26.245Z,1.6588
2019-05-05T11:06:28.172Z,1.7585
2019-05-05T11:07:30.540Z,1.3733
2019-05-05T11:08:31.469Z,0.5359
2019-05-05T11:09:33.839Z,0.6196
2019-05-05T11:10:35.910Z,0.8541
2019-05-05T11:11:36.936Z,0.8039
2019-05-05T11:12:37.894Z,1.1053
2019-05-05T11:13:42.728Z,0.7034
2019-05-05T11:14:45.426Z,2.1269
2019-05-05T11:15:46.558Z,0.8541
2019-05-05T11:16:48.413Z,0.4522
2019-05-05T11:17:50.552Z,2.1439
2019-05-05T11:18:54.047Z,0.8041
2019-05-05T11:19:56.018Z,1.4403
2019-05-05T11:20:57.856Z,0.9211
2019-05-05T11:21:59.720Z,1.6747
2019-05-05T11:23:01.592Z,0.6699
2019-05-05T11:24:03.660Z,0.7369
2019-05-05T11:25:05.201Z,0.1507
2019-05-05T11:26:07.072Z,0.2680
2019-05-05T11:27:08.913Z,0.1005
2019-05-05T11:28:10.770Z,0.4689
2019-05-05T11:29:13.528Z,1.3733
2019-05-05T11:30:15.647Z,0.7536
2019-05-05T11:31:17.517Z,0.8541
2019-05-05T11:32:19.333Z,0.0335
2019-05-05T11:33:20.220Z,0.2010
2019-05-05T11:34:24.508Z,1.3230
2019-05-05T11:35:26.778Z,0.1507
2019-05-05T11:36:28.777Z,1.6245
2019-05-05T11:37:29.632Z,0.4522
2019-05-05T11:38:33.716Z,0.3349
2019-05-05T11:39:35.380Z,0.7201
2019-05-05T11:40:37.257Z,1.8757
2019-05-05T11:41:54.839Z,0.8876
2019-05-05T11:42:56.785Z,0.8039
2019-05-05T11:43:57.738Z,1.5742
2019-05-05T11:44:59.615Z,1.1556
2019-05-05T11:46:01.263Z,0.4689
2019-05-05T11:47:03.655Z,1.4236
2019-05-05T11:48:05.018Z,1.1053
2019-05-05T11:49:06.271Z,0.4688
2019-05-05T11:50:08.291Z,1.3733
2019-05-05T11:51:17.310Z,1.6587
2019-05-05T11:52:19.172Z,1.4582
2019-05-05T11:53:20.944Z,2.2782
2019-05-05T11:54:24.479Z,0.9044
2019-05-05T11:55:27.125Z,0.8542
2019-05-05T11:56:33.835Z,1.9092
2019-05-05T11:57:43.683Z,0.4019
2019-05-05T11:58:44.996Z,2.4284
2019-05-05T11:59:46.859Z,1.5241
2019-05-05T12:00:49.078Z,2.1931
2019-05-05T12:01:50.958Z,1.0886
2019-05-05T12:02:54.379Z,0.8876
2019-05-05T12:03:56.202Z,2.0603
2019-05-05T12:04:57.997Z,0.8544
2019-05-05T12:06:00.014Z,1.6246
2019-05-05T12:07:03.896Z,1.2226
2019-05-05T12:08:05.882Z,0.3182
2019-05-05T12:09:07.727Z,1.0886
2019-05-05T12:10:09.672Z,1.5073
2019-05-05T12:11:11.872Z,2.8973
2019-05-05T12:12:14.291Z,1.9595
2019-05-05T12:13:16.345Z,2.1604
2019-05-05T12:14:17.302Z,1.6582
2019-05-05T12:15:19.136Z,1.2393
2019-05-05T12:16:21.295Z,1.2728
2019-05-05T12:17:24.301Z,1.1053
2019-05-05T12:18:26.175Z,2.0934
2019-05-05T12:19:33.099Z,2.1771
2019-05-05T12:20:35.613Z,0.8709
2019-05-05T12:21:37.876Z,0.9546
2019-05-05T12:22:40.019Z,1.7754
2019-05-05T12:23:44.207Z,2.2945
2019-05-05T12:24:45.397Z,2.0264
2019-05-05T12:25:47.252Z,2.0267
2019-05-05T12:26:49.175Z,1.7417
2019-05-05T12:27:51.189Z,1.9092
2019-05-05T12:28:54.568Z,1.2895
2019-05-05T12:29:56.500Z,1.1891
2019-05-05T12:30:58.272Z,1.3565
2019-05-05T12:32:00.258Z,0.5359
2019-05-05T12:33:02.358Z,2.7811
2019-05-05T12:34:04.252Z,2.8135
2019-05-05T12:35:05.053Z,1.4405
2019-05-05T12:36:06.854Z,2.4787
2019-05-05T12:37:08.632Z,1.1556
2019-05-05T12:38:10.452Z,1.4235
2019-05-05T12:39:14.059Z,0.5862
2019-05-05T12:40:16.020Z,0.3349
2019-05-05T12:41:20.840Z,1.0383
2019-05-05T12:42:24.234Z,3.2155
2019-05-05T12:43:26.108Z,1.9444
2019-05-05T12:44:27.293Z,0.8876
2019-05-05T12:45:28.277Z,1.0718
2019-05-05T12:46:30.135Z,3.8702
2019-05-05T12:47:34.104Z,2.7136
2019-05-05T12:48:36.177Z,1.4068
2019-05-05T12:49:37.943Z,1.4236
2019-05-05T12:50:39.857Z,1.4069
2019-05-05T12:51:40.746Z,1.5415
2019-05-05T12:52:44.080Z,1.3234
2019-05-05T12:53:46.272Z,2.3448
2019-05-05T12:54:48.045Z,1.7422
2019-05-05T12:55:49.802Z,0.4689
2019-05-05T12:56:53.732Z,0.9378